createdAt,value
2022-09-20T00:00:07.335Z,0
2022-09-20T00:03:07.482Z,0
2022-09-20T00:06:07.362Z,0
2022-09-20T00:09:07.348Z,0
2022-09-20T00:12:07.301Z,0
2022-09-20T00:15:07.305Z,0
2022-09-20T00:18:07.338Z,0
2022-09-20T00:21:07.423Z,0
2022-09-20T00:24:07.280Z,0
2022-09-20T00:27:07.372Z,0
2022-09-20T00:30:07.328Z,0
2022-09-20T00:33:07.286Z,0
2022-09-20T00:36:07.299Z,0
2022-09-20T00:39:07.300Z,0
2022-09-20T00:42:07.305Z,0
2022-09-20T00:45:07.332Z,0
2022-09-20T00:48:07.303Z,0
2022-09-20T00:51:07.247Z,0
2022-09-20T00:54:07.346Z,0
2022-09-20T00:57:07.275Z,0
2022-09-20T01:00:07.312Z,0
2022-09-20T01:03:07.252Z,0
2022-09-20T01:06:07.291Z,0
2022-09-20T01:09:07.369Z,0
2022-09-20T01:12:07.394Z,0
2022-09-20T01:15:07.257Z,0
2022-09-20T01:18:07.297Z,0
2022-09-20T01:21:07.282Z,0
2022-09-20T01:24:07.258Z,0
2022-09-20T01:27:07.235Z,0
2022-09-20T01:30:07.363Z,0
2022-09-20T01:33:07.311Z,0
2022-09-20T01:36:07.246Z,0
2022-09-20T01:39:07.416Z,0
2022-09-20T01:42:07.445Z,0
2022-09-20T01:45:07.381Z,0
2022-09-20T01:48:07.471Z,0
2022-09-20T01:51:07.332Z,0
2022-09-20T01:54:07.337Z,0
2022-09-20T01:57:07.278Z,0
2022-09-20T02:00:07.488Z,0
2022-09-20T02:03:07.317Z,0
2022-09-20T02:06:07.354Z,0
2022-09-20T02:09:07.346Z,0
2022-09-20T02:12:07.337Z,0
2022-09-20T02:15:07.345Z,0
2022-09-20T02:18:07.389Z,0
2022-09-20T02:21:07.291Z,0
2022-09-20T02:24:07.400Z,0
2022-09-20T02:27:07.311Z,0
2022-09-20T02:30:07.365Z,0
2022-09-20T02:33:07.365Z,0
2022-09-20T02:36:07.343Z,0
2022-09-20T02:39:07.328Z,0
2022-09-20T02:42:07.296Z,0
2022-09-20T02:45:07.362Z,0
2022-09-20T02:48:07.473Z,0
2022-09-20T02:51:07.289Z,0
2022-09-20T02:54:07.410Z,0
2022-09-20T02:57:07.344Z,0
2022-09-20T03:00:07.355Z,0
2022-09-20T03:03:07.252Z,0
2022-09-20T03:06:07.322Z,0
2022-09-20T03:09:07.283Z,0
2022-09-20T03:12:07.322Z,0
2022-09-20T03:15:07.342Z,0
2022-09-20T03:18:07.320Z,0
2022-09-20T03:21:07.358Z,0
2022-09-20T03:24:07.306Z,0
2022-09-20T03:27:07.314Z,0
2022-09-20T03:30:07.399Z,0
2022-09-20T03:33:07.316Z,0
2022-09-20T03:36:07.324Z,0
2022-09-20T03:39:07.488Z,0
2022-09-20T03:42:07.373Z,0
2022-09-20T03:45:07.328Z,0
2022-09-20T03:48:07.345Z,0
2022-09-20T03:51:07.313Z,0
2022-09-20T03:54:07.337Z,0
2022-09-20T03:57:07.278Z,0
2022-09-20T04:00:07.489Z,0
2022-09-20T04:03:07.280Z,0
2022-09-20T04:06:07.336Z,0
2022-09-20T04:09:07.337Z,0
2022-09-20T04:12:07.843Z,0
2022-09-20T04:15:07.335Z,0
2022-09-20T04:18:07.334Z,0
2022-09-20T04:21:07.283Z,0
2022-09-20T04:24:07.384Z,0
2022-09-20T04:27:07.376Z,0
2022-09-20T04:30:07.425Z,0
2022-09-20T04:33:07.336Z,3
2022-09-20T04:36:07.492Z,3
2022-09-20T04:39:07.335Z,7
2022-09-20T04:42:07.322Z,10
2022-09-20T04:45:07.382Z,13
2022-09-20T04:48:07.332Z,27
2022-09-20T04:51:07.396Z,40
2022-09-20T04:54:07.347Z,60
2022-09-20T04:57:07.304Z,77
2022-09-20T05:00:07.285Z,87
2022-09-20T05:03:07.343Z,110
2022-09-20T05:06:07.352Z,170
2022-09-20T05:09:07.686Z,203
2022-09-20T05:12:07.379Z,223
2022-09-20T05:15:07.383Z,263
2022-09-20T05:18:07.306Z,307
2022-09-20T05:21:07.654Z,413
2022-09-20T05:24:12.009Z,650
2022-09-20T05:27:07.393Z,677
2022-09-20T05:30:12.019Z,817
2022-09-20T05:33:07.465Z,873
2022-09-20T05:36:07.378Z,810
2022-09-20T05:39:10.548Z,1163
2022-09-20T05:42:07.417Z,1307
2022-09-20T05:45:07.380Z,1003
2022-09-20T05:48:07.420Z,1430
2022-09-20T05:51:10.690Z,1780
2022-09-20T05:54:07.345Z,2217
2022-09-20T05:57:07.342Z,3003
2022-09-20T06:00:07.442Z,2567
2022-09-20T06:03:07.378Z,2803
2022-09-20T06:06:07.346Z,2453
2022-09-20T06:09:07.346Z,2543
2022-09-20T06:12:07.362Z,2603
2022-09-20T06:15:07.333Z,2643
2022-09-20T06:18:07.370Z,2573
2022-09-20T06:21:07.325Z,2630
2022-09-20T06:24:07.346Z,2940
2022-09-20T06:27:07.306Z,3330
2022-09-20T06:30:07.431Z,4273
2022-09-20T06:33:07.332Z,5123
2022-09-20T06:36:07.291Z,4117
2022-09-20T06:39:07.393Z,3923
2022-09-20T06:42:07.360Z,4053
2022-09-20T06:45:07.452Z,5310
2022-09-20T06:48:07.352Z,6020
2022-09-20T06:51:07.334Z,4513
2022-09-20T06:54:07.360Z,5797
2022-09-20T06:57:07.359Z,7163
2022-09-20T07:00:07.420Z,5467
2022-09-20T07:03:07.320Z,5307
2022-09-20T07:06:07.359Z,4353
2022-09-20T07:09:07.374Z,3770
2022-09-20T07:12:07.336Z,4550
2022-09-20T07:15:07.374Z,7467
2022-09-20T07:18:07.366Z,7950
2022-09-20T07:21:07.323Z,10833
2022-09-20T07:24:07.396Z,11107
2022-09-20T07:27:07.391Z,8270
2022-09-20T07:30:07.436Z,6817
2022-09-20T07:33:07.331Z,4153
2022-09-20T07:36:07.386Z,8667
2022-09-20T07:39:07.444Z,10947
2022-09-20T07:42:07.381Z,8507
2022-09-20T07:45:07.436Z,7380
2022-09-20T07:48:07.329Z,7503
2022-09-20T07:51:12.299Z,7550
2022-09-20T07:54:07.359Z,9457
2022-09-20T07:57:07.293Z,10727
2022-09-20T08:00:07.423Z,9777
2022-09-20T08:03:07.368Z,11720
2022-09-20T08:06:07.386Z,12347
2022-09-20T08:09:12.421Z,12457
2022-09-20T08:15:12.184Z,11117
2022-09-20T08:18:07.439Z,13787
2022-09-20T08:21:07.385Z,16333
2022-09-20T08:24:07.384Z,18467
2022-09-20T08:27:07.330Z,16963
2022-09-20T08:30:07.460Z,18820
2022-09-20T08:33:07.455Z,14957
2022-09-20T08:36:07.357Z,13950
2022-09-20T08:42:07.350Z,15857
2022-09-20T08:45:07.663Z,21600
2022-09-20T08:48:07.399Z,19863
2022-09-20T08:51:12.642Z,17443
2022-09-20T08:54:07.318Z,19870
2022-09-20T08:57:07.425Z,15183
2022-09-20T09:00:07.433Z,41337
2022-09-20T09:03:07.348Z,14297
2022-09-20T09:06:17.770Z,15083
2022-09-20T09:09:07.450Z,17837
2022-09-20T09:12:07.414Z,21007
2022-09-20T09:15:07.343Z,25343
2022-09-20T09:18:07.395Z,22363
2022-09-20T09:21:07.481Z,23940
2022-09-20T09:24:07.387Z,12513
2022-09-20T09:27:07.342Z,24543
2022-09-20T09:30:07.480Z,61987
2022-09-20T09:33:07.318Z,20277
2022-09-20T09:36:07.348Z,22270
2022-09-20T09:39:07.406Z,17673
2022-09-20T09:42:07.470Z,17443
2022-09-20T09:45:07.372Z,22910
2022-09-20T09:48:07.409Z,16483
2022-09-20T09:51:07.372Z,19970
2022-09-20T09:54:07.310Z,33023
2022-09-20T09:57:07.349Z,35137
2022-09-20T10:00:22.590Z,24653
2022-09-20T10:03:07.319Z,31700
2022-09-20T10:06:07.342Z,28987
2022-09-20T10:09:07.372Z,25843
2022-09-20T10:12:07.392Z,15427
2022-09-20T10:15:07.350Z,17347
2022-09-20T10:18:07.412Z,28847
2022-09-20T10:21:07.317Z,40057
2022-09-20T10:24:11.617Z,19450
2022-09-20T10:27:07.497Z,13660
2022-09-20T10:30:07.343Z,12753
2022-09-20T10:33:07.302Z,14967
2022-09-20T10:36:07.370Z,17677
2022-09-20T10:39:07.359Z,17710
2022-09-20T10:42:07.431Z,17420
2022-09-20T10:45:07.393Z,17543
2022-09-20T10:48:07.348Z,22220
2022-09-20T10:51:07.316Z,27407
2022-09-20T10:54:07.424Z,65033
2022-09-20T10:57:07.417Z,58903
2022-09-20T11:00:07.409Z,58327
2022-09-20T11:03:07.412Z,57677
2022-09-20T11:06:07.366Z,58377
2022-09-20T11:09:09.621Z,57520
2022-09-20T11:12:07.373Z,60463
2022-09-20T11:15:07.314Z,22460
2022-09-20T11:18:07.422Z,23520
2022-09-20T11:21:07.442Z,61903
2022-09-20T11:24:07.386Z,64423
2022-09-20T11:27:07.420Z,62260
2022-09-20T11:30:07.448Z,60180
2022-09-20T11:33:07.371Z,61533
2022-09-20T11:36:07.366Z,61180
2022-09-20T11:39:07.596Z,58707
2022-09-20T11:42:07.379Z,59283
2022-09-20T11:45:07.428Z,60677
2022-09-20T11:48:07.401Z,61393
2022-09-20T11:51:07.377Z,62347
2022-09-20T11:54:07.493Z,63480
2022-09-20T11:57:07.311Z,22350
2022-09-20T12:00:07.470Z,19840
2022-09-20T12:03:08.225Z,18803
2022-09-20T12:06:07.368Z,18383
2022-09-20T12:09:07.425Z,53623
2022-09-20T12:12:07.350Z,58967
2022-09-20T12:15:07.339Z,59047
2022-09-20T12:18:15.625Z,56373
2022-09-20T12:21:07.392Z,19760
2022-09-20T12:24:07.388Z,53010
2022-09-20T12:27:07.394Z,56073
2022-09-20T12:30:07.531Z,58160
2022-09-20T12:33:07.411Z,62397
2022-09-20T12:36:07.362Z,68210
2022-09-20T12:39:07.365Z,64723
2022-09-20T12:42:07.441Z,15633
2022-09-20T12:45:07.414Z,16087
2022-09-20T12:48:07.384Z,13653
2022-09-20T12:51:07.370Z,15327
2022-09-20T12:54:07.328Z,17073
2022-09-20T12:57:07.358Z,17180
2022-09-20T13:00:07.485Z,51670
2022-09-20T13:03:07.317Z,46560
2022-09-20T13:06:07.390Z,63947
2022-09-20T13:09:08.311Z,65663
2022-09-20T13:12:07.373Z,60487
2022-09-20T13:15:07.348Z,42080
2022-09-20T13:18:07.387Z,38543
2022-09-20T13:21:07.272Z,27400
2022-09-20T13:24:07.372Z,33747
2022-09-20T13:27:07.400Z,29640
2022-09-20T13:30:07.421Z,17430
2022-09-20T13:33:07.362Z,17237
2022-09-20T13:36:07.342Z,42603
2022-09-20T13:39:07.353Z,48243
2022-09-20T13:42:07.325Z,39710
2022-09-20T13:45:07.344Z,43893
2022-09-20T13:48:07.401Z,42237
2022-09-20T13:51:07.301Z,41310
2022-09-20T13:54:07.305Z,40633
2022-09-20T13:57:07.351Z,39840
2022-09-20T14:00:07.617Z,39207
2022-09-20T14:03:07.385Z,38780
2022-09-20T14:06:07.373Z,38387
2022-09-20T14:09:13.720Z,37923
2022-09-20T14:12:07.367Z,37200
2022-09-20T14:15:07.361Z,36647
2022-09-20T14:18:07.326Z,36287
2022-09-20T14:21:07.363Z,32843
2022-09-20T14:24:07.378Z,36510
2022-09-20T14:27:07.309Z,37573
2022-09-20T14:30:07.446Z,9900
2022-09-20T14:33:07.383Z,7860
2022-09-20T14:36:07.384Z,7373
2022-09-20T14:39:07.381Z,34583
2022-09-20T14:42:07.332Z,35190
2022-09-20T14:45:07.353Z,35390
2022-09-20T14:48:14.032Z,36813
2022-09-20T14:51:07.408Z,38033
2022-09-20T14:54:07.332Z,37877
2022-09-20T14:57:07.357Z,25803
2022-09-20T15:00:07.489Z,19943
2022-09-20T15:03:07.351Z,21410
2022-09-20T15:06:07.411Z,8203
2022-09-20T15:09:07.371Z,7153
2022-09-20T15:12:07.424Z,8153
2022-09-20T15:15:07.422Z,8607
2022-09-20T15:18:07.375Z,9807
2022-09-20T15:21:07.371Z,7570
2022-09-20T15:24:07.388Z,8110
2022-09-20T15:27:07.340Z,8070
2022-09-20T15:30:08.203Z,22043
2022-09-20T15:33:09.949Z,12847
2022-09-20T15:36:07.420Z,15030
2022-09-20T15:39:07.384Z,8663
2022-09-20T15:42:07.351Z,14130
2022-09-20T15:45:07.402Z,9897
2022-09-20T15:48:07.390Z,15973
2022-09-20T15:51:07.346Z,20177
2022-09-20T15:54:07.372Z,19627
2022-09-20T15:57:07.319Z,19350
2022-09-20T16:00:07.335Z,7640
2022-09-20T16:03:07.332Z,14197
2022-09-20T16:06:11.393Z,16810
2022-09-20T16:09:07.364Z,5990
2022-09-20T16:12:07.366Z,6310
2022-09-20T16:15:07.381Z,6663
2022-09-20T16:18:07.396Z,8987
2022-09-20T16:21:07.335Z,7333
2022-09-20T16:24:07.374Z,11823
2022-09-20T16:27:07.364Z,10643
2022-09-20T16:30:07.447Z,6477
2022-09-20T16:33:07.457Z,6677
2022-09-20T16:36:27.555Z,5840
2022-09-20T16:39:07.343Z,5117
2022-09-20T16:42:07.407Z,7630
2022-09-20T16:45:07.374Z,7530
2022-09-20T16:48:12.703Z,4340
2022-09-20T16:51:07.299Z,3343
2022-09-20T16:54:07.392Z,2903
2022-09-20T16:57:07.438Z,2287
2022-09-20T17:00:07.404Z,1733
2022-09-20T17:03:07.387Z,1343
2022-09-20T17:06:07.332Z,1117
2022-09-20T17:09:07.343Z,877
2022-09-20T17:12:07.373Z,703
2022-09-20T17:15:07.362Z,580
2022-09-20T17:18:07.337Z,470
2022-09-20T17:21:07.337Z,377
2022-09-20T17:24:07.398Z,283
2022-09-20T17:27:07.384Z,210
2022-09-20T17:30:07.306Z,143
2022-09-20T17:33:07.284Z,90
2022-09-20T17:36:07.302Z,53
2022-09-20T17:39:11.313Z,33
2022-09-20T17:42:07.391Z,17
2022-09-20T17:45:07.287Z,10
2022-09-20T17:48:08.006Z,7
2022-09-20T17:51:12.586Z,3
2022-09-20T17:54:07.315Z,3
2022-09-20T17:57:07.287Z,0
2022-09-20T18:00:07.409Z,0
2022-09-20T18:03:11.729Z,0
2022-09-20T18:06:07.320Z,0
2022-09-20T18:09:07.285Z,0
2022-09-20T18:12:07.291Z,0
2022-09-20T18:15:07.279Z,0
2022-09-20T18:18:07.328Z,0
2022-09-20T18:21:07.284Z,0
2022-09-20T18:24:07.298Z,0
2022-09-20T18:27:07.733Z,0
2022-09-20T18:30:07.386Z,0
2022-09-20T18:33:07.254Z,0
2022-09-20T18:36:07.316Z,0
2022-09-20T18:39:07.354Z,0
2022-09-20T18:42:07.351Z,0
2022-09-20T18:45:07.359Z,0
2022-09-20T18:48:07.257Z,0
2022-09-20T18:51:07.302Z,0
2022-09-20T18:54:07.476Z,0
2022-09-20T18:57:07.323Z,0
2022-09-20T19:00:10.917Z,0
2022-09-20T19:03:12.736Z,0
2022-09-20T19:06:07.273Z,0
2022-09-20T19:09:07.441Z,0
2022-09-20T19:12:07.301Z,0
2022-09-20T19:15:07.343Z,0
2022-09-20T19:18:07.412Z,0
2022-09-20T19:21:07.378Z,0
2022-09-20T19:24:10.508Z,0
2022-09-20T19:27:07.332Z,0
2022-09-20T19:30:07.303Z,0
2022-09-20T19:33:07.308Z,0
2022-09-20T19:36:07.328Z,0
2022-09-20T19:39:07.443Z,0
2022-09-20T19:42:07.294Z,0
2022-09-20T19:45:07.315Z,0
2022-09-20T19:48:07.332Z,0
2022-09-20T19:51:07.256Z,0
2022-09-20T19:54:07.603Z,0
2022-09-20T19:57:07.252Z,0
2022-09-20T20:00:13.099Z,0
2022-09-20T20:03:07.606Z,0
2022-09-20T20:06:14.675Z,0
2022-09-20T20:09:07.294Z,0
2022-09-20T20:12:07.334Z,0
2022-09-20T20:15:07.283Z,0
2022-09-20T20:18:07.335Z,0
2022-09-20T20:21:07.297Z,0
2022-09-20T20:24:07.480Z,0
2022-09-20T20:27:07.229Z,0
2022-09-20T20:30:07.410Z,0
2022-09-20T20:33:07.316Z,0
2022-09-20T20:36:07.289Z,0
2022-09-20T20:39:07.419Z,0
2022-09-20T20:42:09.228Z,0
2022-09-20T20:45:07.404Z,0
2022-09-20T20:48:07.291Z,0
2022-09-20T20:51:07.293Z,0
2022-09-20T20:54:07.522Z,0
2022-09-20T20:57:07.320Z,0
2022-09-20T21:00:07.393Z,0
2022-09-20T21:03:07.499Z,0
2022-09-20T21:06:07.347Z,0
2022-09-20T21:09:07.384Z,0
2022-09-20T21:12:07.297Z,0
2022-09-20T21:15:07.366Z,0
2022-09-20T21:18:07.312Z,0
2022-09-20T21:21:07.315Z,0
2022-09-20T21:24:07.439Z,0
2022-09-20T21:27:07.353Z,0
2022-09-20T21:30:07.310Z,0
2022-09-20T21:33:07.296Z,0
2022-09-20T21:36:07.311Z,0
2022-09-20T21:39:07.469Z,0
2022-09-20T21:42:07.287Z,0
2022-09-20T21:45:07.385Z,0
2022-09-20T21:48:07.297Z,0
2022-09-20T21:51:07.286Z,0
2022-09-20T21:54:07.537Z,0
2022-09-20T21:57:07.284Z,0
2022-09-20T22:00:07.464Z,0
2022-09-20T22:03:07.339Z,0
2022-09-20T22:06:07.314Z,0
2022-09-20T22:09:07.408Z,0
2022-09-20T22:12:07.321Z,0
2022-09-20T22:15:07.284Z,0
2022-09-20T22:18:07.350Z,0
2022-09-20T22:21:07.336Z,0
2022-09-20T22:24:07.545Z,0
2022-09-20T22:27:07.297Z,0
2022-09-20T22:30:11.852Z,0
2022-09-20T22:33:07.300Z,0
2022-09-20T22:36:07.328Z,0
2022-09-20T22:39:07.391Z,0
2022-09-20T22:42:07.291Z,0
2022-09-20T22:45:07.312Z,0
2022-09-20T22:48:07.283Z,0
2022-09-20T22:51:07.282Z,0
2022-09-20T22:54:07.614Z,0
2022-09-20T22:57:07.239Z,0
2022-09-20T23:00:07.456Z,0
2022-09-20T23:03:07.320Z,0
2022-09-20T23:06:07.297Z,0
2022-09-20T23:09:07.389Z,0
2022-09-20T23:12:07.297Z,0
2022-09-20T23:15:07.322Z,0
2022-09-20T23:18:07.387Z,0
2022-09-20T23:21:07.340Z,0
2022-09-20T23:24:07.248Z,0
2022-09-20T23:27:07.272Z,0
2022-09-20T23:30:07.301Z,0
2022-09-20T23:33:07.609Z,0
2022-09-20T23:36:07.346Z,0
2022-09-20T23:39:07.355Z,0
2022-09-20T23:42:07.273Z,0
2022-09-20T23:45:07.358Z,0
2022-09-20T23:48:07.317Z,0
2022-09-20T23:51:07.316Z,0
2022-09-20T23:54:07.292Z,0
2022-09-20T23:57:07.254Z,0
